createdAt,value
2019-05-02T00:00:46.704Z,8.36
2019-05-02T00:01:46.720Z,8.42
2019-05-02T00:02:46.740Z,8.45
2019-05-02T00:03:46.756Z,8.41
2019-05-02T00:04:51.084Z,8.32
2019-05-02T00:05:46.789Z,8.36
2019-05-02T00:06:46.805Z,8.23
2019-05-02T00:07:46.820Z,8.28
2019-05-02T00:08:46.837Z,8.31
2019-05-02T00:09:48.396Z,8.26
2019-05-02T00:10:46.868Z,8.32
2019-05-02T00:11:58.257Z,8.27
2019-05-02T00:12:46.903Z,8.28
2019-05-02T00:13:46.922Z,8.23
2019-05-02T00:14:46.937Z,8.20
2019-05-02T00:15:46.951Z,8.23
2019-05-02T00:16:49.340Z,8.26
2019-05-02T00:17:46.986Z,8.08
2019-05-02T00:18:47.011Z,8.17
2019-05-02T00:19:49.964Z,8.11
2019-05-02T00:20:47.034Z,8.13
2019-05-02T00:21:47.052Z,8.08
2019-05-02T00:22:48.046Z,8.05
2019-05-02T00:23:47.088Z,8.05
2019-05-02T00:24:47.104Z,8.06
2019-05-02T00:25:47.287Z,8.05
2019-05-02T00:26:47.134Z,7.99
2019-05-02T00:27:47.150Z,7.98
2019-05-02T00:28:48.209Z,7.96
2019-05-02T00:29:47.183Z,7.96
2019-05-02T00:30:47.200Z,7.91
2019-05-02T00:31:48.804Z,7.93
2019-05-02T00:32:47.230Z,7.90
2019-05-02T00:33:47.245Z,7.90
2019-05-02T00:34:47.268Z,7.98
2019-05-02T00:35:47.634Z,7.95
2019-05-02T00:36:47.296Z,7.88
2019-05-02T00:37:47.317Z,7.88
2019-05-02T00:38:47.330Z,7.90
2019-05-02T00:39:49.165Z,7.91
2019-05-02T00:40:47.359Z,7.85
2019-05-02T00:41:47.463Z,7.90
2019-05-02T00:42:47.439Z,7.87
2019-05-02T00:43:47.449Z,7.75
2019-05-02T00:44:48.303Z,7.88
2019-05-02T00:45:47.524Z,7.84
2019-05-02T00:46:47.522Z,7.81
2019-05-02T00:47:48.272Z,7.80
2019-05-02T00:48:47.537Z,7.74
2019-05-02T00:49:47.514Z,7.78
2019-05-02T00:50:50.926Z,7.84
2019-05-02T00:51:47.539Z,7.84
2019-05-02T00:52:47.555Z,7.85
2019-05-02T00:53:48.436Z,7.85
2019-05-02T00:54:47.589Z,7.85
2019-05-02T00:55:47.605Z,7.84
2019-05-02T00:56:47.624Z,7.88
2019-05-02T00:57:50.900Z,7.88
2019-05-02T00:58:47.655Z,7.88
2019-05-02T00:59:47.668Z,7.91
2019-05-02T01:00:48.610Z,7.93
2019-05-02T01:01:47.700Z,7.95
2019-05-02T01:02:47.718Z,7.95
2019-05-02T01:03:52.096Z,7.98
2019-05-02T01:04:47.755Z,8.02
2019-05-02T01:05:47.766Z,8.02
2019-05-02T01:06:49.238Z,8.05
2019-05-02T01:07:47.798Z,7.99
2019-05-02T01:08:47.817Z,8.06
2019-05-02T01:09:48.065Z,8.08
2019-05-02T01:10:52.015Z,8.11
2019-05-02T01:11:47.865Z,8.11
2019-05-02T01:12:47.882Z,8.11
2019-05-02T01:13:50.281Z,8.09
2019-05-02T01:14:47.914Z,8.21
2019-05-02T01:15:47.930Z,8.20
2019-05-02T01:16:49.344Z,8.23
2019-05-02T01:17:47.961Z,8.24
2019-05-02T01:18:47.980Z,8.26
2019-05-02T01:19:51.424Z,8.23
2019-05-02T01:20:48.015Z,8.24
2019-05-02T01:21:48.030Z,8.28
2019-05-02T01:22:52.224Z,8.24
2019-05-02T01:23:48.059Z,8.26
2019-05-02T01:24:48.076Z,8.39
2019-05-02T01:25:52.804Z,8.28
2019-05-02T01:26:48.110Z,8.36
2019-05-02T01:27:48.130Z,8.26
2019-05-02T01:28:49.282Z,8.31
2019-05-02T01:29:48.159Z,8.28
2019-05-02T01:30:48.178Z,8.42
2019-05-02T01:31:49.872Z,8.31
2019-05-02T01:32:48.212Z,8.38
2019-05-02T01:33:48.226Z,8.38
2019-05-02T01:34:48.929Z,8.35
2019-05-02T01:35:48.262Z,8.32
2019-05-02T01:36:48.278Z,8.39
2019-05-02T01:37:50.963Z,8.38
2019-05-02T01:38:48.311Z,8.39
2019-05-02T01:39:48.329Z,8.35
2019-05-02T01:40:53.008Z,8.46
2019-05-02T01:41:48.361Z,8.53
2019-05-02T01:42:48.995Z,8.42
2019-05-02T01:43:48.395Z,8.56
2019-05-02T01:44:48.410Z,8.44
2019-05-02T01:45:48.426Z,8.44
2019-05-02T01:46:48.443Z,8.60
2019-05-02T01:47:48.459Z,8.49
2019-05-02T01:48:48.480Z,8.54
2019-05-02T01:49:52.077Z,8.54
2019-05-02T01:50:48.510Z,8.56
2019-05-02T01:51:49.345Z,8.53
2019-05-02T01:52:48.546Z,8.45
2019-05-02T01:53:48.564Z,8.46
2019-05-02T01:54:48.577Z,8.54
2019-05-02T01:55:51.942Z,8.52
2019-05-02T01:56:48.607Z,8.42
2019-05-02T01:57:48.626Z,8.60
2019-05-02T01:58:52.729Z,8.61
2019-05-02T01:59:48.659Z,8.56
2019-05-02T02:00:48.693Z,8.52
2019-05-02T02:01:48.693Z,8.56
2019-05-02T02:02:48.714Z,8.50
2019-05-02T02:03:48.725Z,8.59
2019-05-02T02:04:52.111Z,8.56
2019-05-02T02:05:48.757Z,8.52
2019-05-02T02:06:48.776Z,8.61
2019-05-02T02:07:50.731Z,8.49
2019-05-02T02:08:48.811Z,8.46
2019-05-02T02:09:48.826Z,8.45
2019-05-02T02:10:50.523Z,8.60
2019-05-02T02:11:48.859Z,8.49
2019-05-02T02:13:02.887Z,8.56
2019-05-02T02:13:48.893Z,8.54
2019-05-02T02:14:53.343Z,8.50
2019-05-02T02:15:48.927Z,8.52
2019-05-02T02:16:48.941Z,8.49
2019-05-02T02:17:51.526Z,8.53
2019-05-02T02:18:48.974Z,8.54
2019-05-02T02:19:48.992Z,8.56
2019-05-02T02:20:49.338Z,8.50
2019-05-02T02:21:49.025Z,8.59
2019-05-02T02:22:49.040Z,8.54
2019-05-02T02:23:49.743Z,8.56
2019-05-02T02:24:49.075Z,8.50
2019-05-02T02:25:49.091Z,8.60
2019-05-02T02:26:49.918Z,8.49
2019-05-02T02:27:49.125Z,8.57
2019-05-02T02:28:49.142Z,8.57
2019-05-02T02:29:49.155Z,8.53
2019-05-02T02:30:49.184Z,8.52
2019-05-02T02:31:49.197Z,8.44
2019-05-02T02:32:49.208Z,8.49
2019-05-02T02:33:49.896Z,8.49
2019-05-02T02:34:49.275Z,8.44
2019-05-02T02:35:51.957Z,8.44
2019-05-02T02:36:49.325Z,8.53
2019-05-02T02:37:53.089Z,8.46
2019-05-02T02:38:49.378Z,8.57
2019-05-02T02:39:54.215Z,8.49
2019-05-02T02:40:49.375Z,8.54
2019-05-02T02:41:52.395Z,8.49
2019-05-02T02:42:49.389Z,8.52
2019-05-02T02:43:54.652Z,8.45
2019-05-02T02:44:49.411Z,8.44
2019-05-02T02:45:57.147Z,8.45
2019-05-02T02:46:49.438Z,8.50
2019-05-02T02:47:52.891Z,8.50
2019-05-02T02:48:49.472Z,8.46
2019-05-02T02:49:49.493Z,8.38
2019-05-02T02:50:49.504Z,8.46
2019-05-02T02:51:49.519Z,8.46
2019-05-02T02:52:49.537Z,8.41
2019-05-02T02:53:49.552Z,8.45
2019-05-02T02:54:49.568Z,8.46
2019-05-02T02:55:49.609Z,8.44
2019-05-02T02:56:49.603Z,8.44
2019-05-02T02:57:49.619Z,8.50
2019-05-02T02:58:49.637Z,8.49
2019-05-02T02:59:49.659Z,8.44
2019-05-02T03:00:49.667Z,8.35
2019-05-02T03:01:49.685Z,8.42
2019-05-02T03:02:50.116Z,8.38
2019-05-02T03:03:49.716Z,8.39
2019-05-02T03:04:49.737Z,8.36
2019-05-02T03:05:49.756Z,8.38
2019-05-02T03:06:49.770Z,8.41
2019-05-02T03:07:49.783Z,8.41
2019-05-02T03:08:49.800Z,8.39
2019-05-02T03:09:49.816Z,8.42
2019-05-02T03:10:49.833Z,8.32
2019-05-02T03:11:49.850Z,8.27
2019-05-02T03:12:49.867Z,8.27
2019-05-02T03:13:53.191Z,8.26
2019-05-02T03:14:49.901Z,8.31
2019-05-02T03:15:49.914Z,8.26
2019-05-02T03:16:49.933Z,8.32
2019-05-02T03:17:49.946Z,8.31
2019-05-02T03:18:49.971Z,8.27
2019-05-02T03:19:54.249Z,8.31
2019-05-02T03:20:49.997Z,8.34
2019-05-02T03:21:54.366Z,8.27
2019-05-02T03:22:50.028Z,8.23
2019-05-02T03:24:01.389Z,8.26
2019-05-02T03:24:50.063Z,8.23
2019-05-02T03:25:51.362Z,8.23
2019-05-02T03:26:55.070Z,8.23
2019-05-02T03:27:50.110Z,8.18
2019-05-02T03:28:57.661Z,8.21
2019-05-02T03:29:50.141Z,8.06
2019-05-02T03:30:50.173Z,8.11
2019-05-02T03:31:50.177Z,8.06
2019-05-02T03:33:02.766Z,8.08
2019-05-02T03:33:59.301Z,8.13
2019-05-02T03:34:53.262Z,8.06
2019-05-02T03:35:50.249Z,8.09
2019-05-02T03:36:50.259Z,8.08
2019-05-02T03:37:51.396Z,8.03
2019-05-02T03:38:50.288Z,8.02
2019-05-02T03:39:57.454Z,8.03
2019-05-02T03:40:50.323Z,8.03
2019-05-02T03:41:55.657Z,8.05
2019-05-02T03:42:50.354Z,8.06
2019-05-02T03:43:50.408Z,8.05
2019-05-02T03:44:56.389Z,8.08
2019-05-02T03:45:50.403Z,8.11
2019-05-02T03:46:54.524Z,8.09
2019-05-02T03:47:50.434Z,8.05
2019-05-02T03:48:50.451Z,8.03
2019-05-02T03:49:52.297Z,8.01
2019-05-02T03:50:50.483Z,8.02
2019-05-02T03:51:55.938Z,7.99
2019-05-02T03:52:50.514Z,8.02
2019-05-02T03:53:50.530Z,8.03
2019-05-02T03:54:52.584Z,8.08
2019-05-02T03:55:50.560Z,8.09
2019-05-02T03:56:51.053Z,8.08
2019-05-02T03:57:50.594Z,8.05
2019-05-02T03:58:56.503Z,8.05
2019-05-02T03:59:50.627Z,8.08
2019-05-02T04:01:00.932Z,8.08
2019-05-02T04:01:50.660Z,8.09
2019-05-02T04:02:58.950Z,8.08
2019-05-02T04:03:50.694Z,8.08
2019-05-02T04:04:54.457Z,8.06
2019-05-02T04:05:50.724Z,8.09
2019-05-02T04:06:54.925Z,8.13
2019-05-02T04:07:50.758Z,8.06
2019-05-02T04:08:58.892Z,8.06
2019-05-02T04:09:50.787Z,8.11
2019-05-02T04:10:52.538Z,8.23
2019-05-02T04:11:50.823Z,8.16
2019-05-02T04:12:52.995Z,8.18
2019-05-02T04:13:50.852Z,8.21
2019-05-02T04:14:55.356Z,8.24
2019-05-02T04:15:50.885Z,8.23
2019-05-02T04:16:55.301Z,8.28
2019-05-02T04:17:50.916Z,8.27
2019-05-02T04:18:55.839Z,8.24
2019-05-02T04:19:50.949Z,8.31
2019-05-02T04:20:52.019Z,8.26
2019-05-02T04:21:54.766Z,8.24
2019-05-02T04:22:51.006Z,8.23
2019-05-02T04:23:51.015Z,8.31
2019-05-02T04:24:54.593Z,8.24
2019-05-02T04:25:51.069Z,8.32
2019-05-02T04:26:53.819Z,8.26
2019-05-02T04:27:51.078Z,8.23
2019-05-02T04:28:51.815Z,8.23
2019-05-02T04:29:51.189Z,8.38
2019-05-02T04:30:51.805Z,8.32
2019-05-02T04:31:51.179Z,8.31
2019-05-02T04:32:55.955Z,8.41
2019-05-02T04:33:51.246Z,8.38
2019-05-02T04:34:55.285Z,8.41
2019-05-02T04:35:51.239Z,8.42
2019-05-02T04:37:00.085Z,8.38
2019-05-02T04:37:51.247Z,8.35
2019-05-02T04:38:52.432Z,8.35
2019-05-02T04:39:53.790Z,8.39
2019-05-02T04:40:51.293Z,8.44
2019-05-02T04:41:51.314Z,8.41
2019-05-02T04:43:01.083Z,8.45
2019-05-02T04:43:57.257Z,8.50
2019-05-02T04:45:11.882Z,8.42
2019-05-02T04:45:56.038Z,8.50
2019-05-02T04:46:51.390Z,8.50
2019-05-02T04:47:58.431Z,8.44
2019-05-02T04:48:52.816Z,8.50
2019-05-02T04:49:52.016Z,8.59
2019-05-02T04:50:51.697Z,8.46
2019-05-02T04:52:01.484Z,8.53
2019-05-02T04:52:53.818Z,8.44
2019-05-02T04:53:51.508Z,8.60
2019-05-02T04:54:51.524Z,8.45
2019-05-02T04:56:01.560Z,8.54
2019-05-02T04:56:55.084Z,8.63
2019-05-02T04:57:51.572Z,8.56
2019-05-02T04:58:51.589Z,8.52
2019-05-02T05:00:02.626Z,8.54
2019-05-02T05:00:58.064Z,8.60
2019-05-02T05:01:57.360Z,8.57
2019-05-02T05:02:53.203Z,8.63
2019-05-02T05:03:58.380Z,8.59
2019-05-02T05:04:51.684Z,8.66
2019-05-02T05:05:51.710Z,8.59
2019-05-02T05:06:56.434Z,8.60
2019-05-02T05:07:51.737Z,8.71
2019-05-02T05:08:51.755Z,8.66
2019-05-02T05:09:58.410Z,8.57
2019-05-02T05:10:51.787Z,8.71
2019-05-02T05:11:53.901Z,8.72
2019-05-02T05:12:51.820Z,8.75
2019-05-02T05:13:52.551Z,8.77
2019-05-02T05:14:51.854Z,8.72
2019-05-02T05:15:52.074Z,8.79
2019-05-02T05:16:55.508Z,8.77
2019-05-02T05:17:51.905Z,8.78
2019-05-02T05:18:53.216Z,8.81
2019-05-02T05:19:51.937Z,8.84
2019-05-02T05:20:52.858Z,8.78
2019-05-02T05:21:58.856Z,8.82
2019-05-02T05:22:51.989Z,8.92
2019-05-02T05:23:56.656Z,8.92
2019-05-02T05:24:52.020Z,8.87
2019-05-02T05:25:55.848Z,8.81
2019-05-02T05:26:52.061Z,8.96
2019-05-02T05:27:52.758Z,8.95
2019-05-02T05:28:52.089Z,8.99
2019-05-02T05:29:53.618Z,8.96
2019-05-02T05:30:52.345Z,8.95
2019-05-02T05:31:55.234Z,8.95
2019-05-02T05:32:52.155Z,8.92
2019-05-02T05:33:52.174Z,8.96
2019-05-02T05:34:52.193Z,8.93
2019-05-02T05:35:52.715Z,8.90
2019-05-02T05:36:52.224Z,8.99
2019-05-02T05:37:53.343Z,9.00
2019-05-02T05:38:52.259Z,9.03
2019-05-02T05:39:52.683Z,9.02
2019-05-02T05:40:52.293Z,8.96
2019-05-02T05:41:52.498Z,9.03
2019-05-02T05:42:52.327Z,9.09
2019-05-02T05:43:53.706Z,9.08
2019-05-02T05:44:52.359Z,9.11
2019-05-02T05:45:56.558Z,9.12
2019-05-02T05:46:52.394Z,9.15
2019-05-02T05:47:56.520Z,9.19
2019-05-02T05:48:52.428Z,9.12
2019-05-02T05:49:56.852Z,9.08
2019-05-02T05:50:52.465Z,9.03
2019-05-02T05:51:54.518Z,9.15
2019-05-02T05:52:52.497Z,9.16
2019-05-02T05:53:56.386Z,9.24
2019-05-02T05:54:52.530Z,9.19
2019-05-02T05:55:53.529Z,9.29
2019-05-02T05:56:52.564Z,9.33
2019-05-02T05:57:59.709Z,9.29
2019-05-02T05:58:52.748Z,9.34
2019-05-02T05:59:52.620Z,9.42
2019-05-02T06:00:55.462Z,9.39
2019-05-02T06:01:52.653Z,9.30
2019-05-02T06:02:56.296Z,9.40
2019-05-02T06:03:52.690Z,9.51
2019-05-02T06:04:55.336Z,9.52
2019-05-02T06:05:52.721Z,9.44
2019-05-02T06:06:54.077Z,9.44
2019-05-02T06:07:52.758Z,9.49
2019-05-02T06:08:54.125Z,9.45
2019-05-02T06:09:52.788Z,9.48
2019-05-02T06:10:52.807Z,9.47
2019-05-02T06:11:55.481Z,9.54
2019-05-02T06:12:52.844Z,9.58
2019-05-02T06:13:52.860Z,9.64
2019-05-02T06:14:56.422Z,9.72
2019-05-02T06:16:02.184Z,9.72
2019-05-02T06:16:53.271Z,9.73
2019-05-02T06:17:52.932Z,9.74
2019-05-02T06:18:52.963Z,9.80
2019-05-02T06:19:53.541Z,9.73
2019-05-02T06:20:53.040Z,9.82
2019-05-02T06:21:53.045Z,9.84
2019-05-02T06:22:55.056Z,9.91
2019-05-02T06:23:53.091Z,9.91
2019-05-02T06:24:53.110Z,9.97
2019-05-02T06:25:53.118Z,9.94
2019-05-02T06:26:53.096Z,9.99
2019-05-02T06:27:53.113Z,10.00
2019-05-02T06:28:53.125Z,10.00
2019-05-02T06:29:56.192Z,9.95
2019-05-02T06:30:53.159Z,10.00
2019-05-02T06:31:53.179Z,10.00
2019-05-02T06:32:55.047Z,10.05
2019-05-02T06:33:53.219Z,10.09
2019-05-02T06:34:53.233Z,10.12
2019-05-02T06:36:00.919Z,10.15
2019-05-02T06:36:53.266Z,10.12
2019-05-02T06:37:53.288Z,10.17
2019-05-02T06:38:56.605Z,10.21
2019-05-02T06:39:53.320Z,10.31
2019-05-02T06:40:53.339Z,10.36
2019-05-02T06:41:57.540Z,10.38
2019-05-02T06:42:53.374Z,10.24
2019-05-02T06:43:53.394Z,10.34
2019-05-02T06:44:54.993Z,10.33
2019-05-02T06:45:53.429Z,10.42
2019-05-02T06:46:53.446Z,10.48
2019-05-02T06:47:53.464Z,10.49
2019-05-02T06:48:53.703Z,10.53
2019-05-02T06:49:56.030Z,10.61
2019-05-02T06:50:53.522Z,10.61
2019-05-02T06:51:56.385Z,10.59
2019-05-02T06:52:53.560Z,10.72
2019-05-02T06:53:53.576Z,10.77
2019-05-02T06:54:54.066Z,10.75
2019-05-02T06:55:53.619Z,10.89
2019-05-02T06:56:53.632Z,10.86
2019-05-02T06:57:56.896Z,10.94
2019-05-02T06:58:53.668Z,10.92
2019-05-02T06:59:54.764Z,10.98
2019-05-02T07:00:58.178Z,11.10
2019-05-02T07:01:57.315Z,11.18
2019-05-02T07:02:53.743Z,11.18
2019-05-02T07:03:53.762Z,11.19
2019-05-02T07:04:54.814Z,11.25
2019-05-02T07:05:58.548Z,11.30
2019-05-02T07:06:58.485Z,11.31
2019-05-02T07:07:53.917Z,11.31
2019-05-02T07:08:53.860Z,11.27
2019-05-02T07:09:53.876Z,11.31
2019-05-02T07:10:55.946Z,11.34
2019-05-02T07:11:57.331Z,11.35
2019-05-02T07:13:09.409Z,11.33
2019-05-02T07:13:53.956Z,11.37
2019-05-02T07:14:56.164Z,11.40
2019-05-02T07:15:53.990Z,11.35
2019-05-02T07:16:54.432Z,11.34
2019-05-02T07:17:54.025Z,11.40
2019-05-02T07:18:54.046Z,11.35
2019-05-02T07:19:54.064Z,11.35
2019-05-02T07:20:54.088Z,11.44
2019-05-02T07:21:58.574Z,11.33
2019-05-02T07:22:54.120Z,11.38
2019-05-02T07:23:55.231Z,11.34
2019-05-02T07:24:54.160Z,11.33
2019-05-02T07:25:54.181Z,11.34
2019-05-02T07:26:56.862Z,11.30
2019-05-02T07:27:54.219Z,11.26
2019-05-02T07:28:54.236Z,11.27
2019-05-02T07:29:57.825Z,11.22
2019-05-02T07:30:54.722Z,11.22
2019-05-02T07:31:54.291Z,11.23
2019-05-02T07:32:56.287Z,11.31
2019-05-02T07:33:54.326Z,11.23
2019-05-02T07:34:54.347Z,11.31
2019-05-02T07:35:55.226Z,11.19
2019-05-02T07:36:54.385Z,11.26
2019-05-02T07:37:54.403Z,11.23
2019-05-02T07:38:57.048Z,11.27
2019-05-02T07:39:54.442Z,11.31
2019-05-02T07:40:54.459Z,11.26
2019-05-02T07:41:54.479Z,11.23
2019-05-02T07:42:54.496Z,11.18
2019-05-02T07:43:56.255Z,11.23
2019-05-02T07:44:54.535Z,11.26
2019-05-02T07:45:54.552Z,11.22
2019-05-02T07:46:56.991Z,11.31
2019-05-02T07:47:54.592Z,11.26
2019-05-02T07:48:54.973Z,11.22
2019-05-02T07:49:54.627Z,11.23
2019-05-02T07:50:54.859Z,11.18
2019-05-02T07:51:57.618Z,11.22
2019-05-02T07:52:54.682Z,11.22
2019-05-02T07:53:55.756Z,11.25
2019-05-02T07:54:56.166Z,11.25
2019-05-02T07:55:54.738Z,11.22
2019-05-02T07:56:54.757Z,11.22
2019-05-02T07:57:54.777Z,11.23
2019-05-02T07:58:54.796Z,11.23
2019-05-02T07:59:59.921Z,11.20
2019-05-02T08:00:54.922Z,11.23
2019-05-02T08:01:54.912Z,11.23
2019-05-02T08:02:57.902Z,11.34
2019-05-02T08:03:54.971Z,11.35
2019-05-02T08:04:54.990Z,11.37
2019-05-02T08:05:58.583Z,11.41
2019-05-02T08:06:54.975Z,11.35
2019-05-02T08:07:55.266Z,11.38
2019-05-02T08:08:54.983Z,11.41
2019-05-02T08:09:55.000Z,11.34
2019-05-02T08:11:01.864Z,11.45
2019-05-02T08:11:55.043Z,11.52
2019-05-02T08:12:55.059Z,11.48
2019-05-02T08:13:55.630Z,11.44
2019-05-02T08:14:55.096Z,11.44
2019-05-02T08:15:55.115Z,11.44
2019-05-02T08:17:05.419Z,11.48
2019-05-02T08:17:55.250Z,11.44
2019-05-02T08:18:55.170Z,11.45
2019-05-02T08:19:55.190Z,11.41
2019-05-02T08:20:56.084Z,11.52
2019-05-02T08:21:55.227Z,11.58
2019-05-02T08:22:55.246Z,11.55
2019-05-02T08:23:57.133Z,11.58
2019-05-02T08:24:55.283Z,11.56
2019-05-02T08:25:55.303Z,11.56
2019-05-02T08:26:58.230Z,11.63
2019-05-02T08:27:55.339Z,11.65
2019-05-02T08:28:55.366Z,11.68
2019-05-02T08:29:55.381Z,11.68
2019-05-02T08:30:55.398Z,11.70
2019-05-02T08:31:55.415Z,11.76
2019-05-02T08:32:55.437Z,11.71
2019-05-02T08:33:55.462Z,11.78
2019-05-02T08:34:55.474Z,11.76
2019-05-02T08:35:55.494Z,11.80
2019-05-02T08:36:58.948Z,11.78
2019-05-02T08:37:56.147Z,11.85
2019-05-02T08:38:55.551Z,11.78
2019-05-02T08:39:55.568Z,11.88
2019-05-02T08:40:55.588Z,11.89
2019-05-02T08:41:56.479Z,11.77
2019-05-02T08:42:55.627Z,11.91
2019-05-02T08:43:55.647Z,11.99
2019-05-02T08:44:56.282Z,11.91
2019-05-02T08:45:55.684Z,11.99
2019-05-02T08:46:55.704Z,11.88
2019-05-02T08:47:55.725Z,11.96
2019-05-02T08:48:55.741Z,12.11
2019-05-02T08:49:56.665Z,12.00
2019-05-02T08:50:55.779Z,12.17
2019-05-02T08:51:55.799Z,12.12
2019-05-02T08:52:55.820Z,12.21
2019-05-02T08:53:56.830Z,12.26
2019-05-02T08:54:55.859Z,12.26
2019-05-02T08:55:55.876Z,12.21
2019-05-02T08:56:58.754Z,12.29
2019-05-02T08:57:55.916Z,12.25
2019-05-02T08:58:55.935Z,12.30
2019-05-02T09:00:00.168Z,12.25
2019-05-02T09:00:55.972Z,12.30
2019-05-02T09:01:55.993Z,12.26
2019-05-02T09:02:56.996Z,12.32
2019-05-02T09:03:57.022Z,12.35
2019-05-02T09:04:58.629Z,12.36
2019-05-02T09:06:05.527Z,12.33
2019-05-02T09:06:58.869Z,12.37
2019-05-02T09:07:56.112Z,12.44
2019-05-02T09:08:56.129Z,12.40
2019-05-02T09:10:00.301Z,12.37
2019-05-02T09:10:56.170Z,12.44
2019-05-02T09:12:08.941Z,12.54
2019-05-02T09:12:56.206Z,12.62
2019-05-02T09:13:56.225Z,12.55
2019-05-02T09:14:56.246Z,12.51
2019-05-02T09:15:56.281Z,12.53
2019-05-02T09:17:00.321Z,12.54
2019-05-02T09:17:56.533Z,12.68
2019-05-02T09:18:56.326Z,12.66
2019-05-02T09:20:02.218Z,12.63
2019-05-02T09:20:56.679Z,12.68
2019-05-02T09:21:56.385Z,12.70
2019-05-02T09:22:56.404Z,12.73
2019-05-02T09:23:56.425Z,12.66
2019-05-02T09:24:56.440Z,12.78
2019-05-02T09:25:56.461Z,12.80
2019-05-02T09:26:56.482Z,12.73
2019-05-02T09:27:56.501Z,12.73
2019-05-02T09:29:00.640Z,12.73
2019-05-02T09:29:56.543Z,12.75
2019-05-02T09:30:57.516Z,12.75
2019-05-02T09:31:56.582Z,12.73
2019-05-02T09:32:57.137Z,12.76
2019-05-02T09:33:56.621Z,12.76
2019-05-02T09:35:00.842Z,12.80
2019-05-02T09:35:56.667Z,12.81
2019-05-02T09:36:56.680Z,12.80
2019-05-02T09:37:56.697Z,12.83
2019-05-02T09:38:57.710Z,12.83
2019-05-02T09:39:56.795Z,12.84
2019-05-02T09:40:56.792Z,12.84
2019-05-02T09:41:56.853Z,12.84
2019-05-02T09:43:01.764Z,12.86
2019-05-02T09:43:56.861Z,12.94
2019-05-02T09:44:57.095Z,12.93
2019-05-02T09:45:56.860Z,13.01
2019-05-02T09:46:57.207Z,13.03
2019-05-02T09:48:04.577Z,13.03
2019-05-02T09:48:57.045Z,13.01
2019-05-02T09:49:56.937Z,13.09
2019-05-02T09:50:57.982Z,13.06
2019-05-02T09:51:59.430Z,13.23
2019-05-02T09:52:56.997Z,13.17
2019-05-02T09:54:01.528Z,13.11
2019-05-02T09:54:57.037Z,13.17
2019-05-02T09:55:58.051Z,13.19
2019-05-02T09:56:57.079Z,13.17
2019-05-02T09:57:57.097Z,13.20
2019-05-02T09:59:04.761Z,13.19
2019-05-02T09:59:57.135Z,13.20
2019-05-02T10:00:57.155Z,13.26
2019-05-02T10:01:57.176Z,13.12
2019-05-02T10:02:57.198Z,13.26
2019-05-02T10:03:57.226Z,13.23
2019-05-02T10:04:57.236Z,13.26
2019-05-02T10:05:57.257Z,13.23
2019-05-02T10:06:57.280Z,13.20
2019-05-02T10:07:57.716Z,13.28
2019-05-02T10:08:57.321Z,13.24
2019-05-02T10:09:57.712Z,13.20
2019-05-02T10:10:57.355Z,13.28
2019-05-02T10:11:57.415Z,13.26
2019-05-02T10:12:57.407Z,13.33
2019-05-02T10:13:57.418Z,13.33
2019-05-02T10:14:57.450Z,13.36
2019-05-02T10:15:57.456Z,13.33
2019-05-02T10:16:57.676Z,13.42
2019-05-02T10:18:08.659Z,13.33
2019-05-02T10:19:00.401Z,13.43
2019-05-02T10:19:57.546Z,13.47
2019-05-02T10:20:57.560Z,13.45
2019-05-02T10:21:57.576Z,13.49
2019-05-02T10:22:57.598Z,13.52
2019-05-02T10:23:59.392Z,13.50
2019-05-02T10:24:57.635Z,13.49
2019-05-02T10:25:57.658Z,13.47
2019-05-02T10:27:04.079Z,13.52
2019-05-02T10:27:57.699Z,13.50
2019-05-02T10:28:57.719Z,13.54
2019-05-02T10:30:02.284Z,13.49
2019-05-02T10:30:57.807Z,13.52
2019-05-02T10:31:57.782Z,13.50
2019-05-02T10:32:57.825Z,13.61
2019-05-02T10:33:57.821Z,13.55
2019-05-02T10:34:57.841Z,13.70
2019-05-02T10:35:57.860Z,13.62
2019-05-02T10:36:58.967Z,13.65
2019-05-02T10:37:57.902Z,13.68
2019-05-02T10:38:59.292Z,13.68
2019-05-02T10:39:57.940Z,13.75
2019-05-02T10:41:01.783Z,13.82
2019-05-02T10:41:57.984Z,13.80
2019-05-02T10:42:58.002Z,13.85
2019-05-02T10:43:59.607Z,13.83
2019-05-02T10:44:58.043Z,13.91
2019-05-02T10:45:58.063Z,13.87
2019-05-02T10:46:58.085Z,13.83
2019-05-02T10:47:58.105Z,13.97
2019-05-02T10:48:58.125Z,13.83
2019-05-02T10:49:58.144Z,13.87
2019-05-02T10:50:58.166Z,13.89
2019-05-02T10:51:58.186Z,13.87
2019-05-02T10:52:58.206Z,13.89
2019-05-02T10:53:58.227Z,13.87
2019-05-02T10:54:58.247Z,13.94
2019-05-02T10:55:58.271Z,13.95
2019-05-02T10:56:58.288Z,13.93
2019-05-02T10:57:58.309Z,13.97
2019-05-02T10:58:58.330Z,13.97
2019-05-02T10:59:58.351Z,14.01
2019-05-02T11:00:58.370Z,14.07
2019-05-02T11:01:58.392Z,14.05
2019-05-02T11:02:58.413Z,14.07
2019-05-02T11:03:58.431Z,14.04
2019-05-02T11:04:58.456Z,13.95
2019-05-02T11:06:05.542Z,13.91
2019-05-02T11:06:58.499Z,13.97
2019-05-02T11:08:04.691Z,13.91
2019-05-02T11:08:58.535Z,14.03
2019-05-02T11:10:03.139Z,14.01
2019-05-02T11:10:58.577Z,13.97
2019-05-02T11:11:58.677Z,14.04
2019-05-02T11:12:58.690Z,14.07
2019-05-02T11:14:01.114Z,14.05
2019-05-02T11:14:58.743Z,14.05
2019-05-02T11:15:58.730Z,14.01
2019-05-02T11:16:58.739Z,14.12
2019-05-02T11:17:58.769Z,14.18
2019-05-02T11:18:58.747Z,14.13
2019-05-02T11:19:58.761Z,14.11
2019-05-02T11:20:59.004Z,14.12
2019-05-02T11:21:59.240Z,14.12
2019-05-02T11:22:58.823Z,14.08
2019-05-02T11:23:58.968Z,14.11
2019-05-02T11:24:58.863Z,14.08
2019-05-02T11:25:58.883Z,14.05
2019-05-02T11:26:58.905Z,14.08
2019-05-02T11:28:02.898Z,14.08
2019-05-02T11:28:58.945Z,14.12
2019-05-02T11:29:58.964Z,14.01
2019-05-02T11:31:02.667Z,14.08
2019-05-02T11:31:59.008Z,14.05
2019-05-02T11:32:59.030Z,14.01
2019-05-02T11:33:59.052Z,14.01
2019-05-02T11:34:59.069Z,14.08
2019-05-02T11:35:59.089Z,14.04
2019-05-02T11:36:59.109Z,14.01
2019-05-02T11:37:59.130Z,14.05
2019-05-02T11:39:05.111Z,14.05
2019-05-02T11:40:01.538Z,14.03
2019-05-02T11:40:59.189Z,14.04
2019-05-02T11:41:59.214Z,14.01
2019-05-02T11:43:02.855Z,13.95
2019-05-02T11:43:59.252Z,13.97
2019-05-02T11:44:59.271Z,13.97
2019-05-02T11:46:05.522Z,13.95
2019-05-02T11:46:59.316Z,13.97
2019-05-02T11:48:01.767Z,13.98
2019-05-02T11:48:59.356Z,13.98
2019-05-02T11:49:59.374Z,13.86
2019-05-02T11:50:59.396Z,13.95
2019-05-02T11:52:01.462Z,13.95
2019-05-02T11:52:59.435Z,13.97
2019-05-02T11:54:04.226Z,14.00
2019-05-02T11:54:59.478Z,14.05
2019-05-02T11:56:03.764Z,14.04
2019-05-02T11:56:59.517Z,14.01
2019-05-02T11:58:07.322Z,14.01
2019-05-02T11:58:59.557Z,14.03
2019-05-02T12:00:03.738Z,14.04
2019-05-02T12:01:02.849Z,14.04
2019-05-02T12:02:00.190Z,14.12
2019-05-02T12:02:59.640Z,14.07
2019-05-02T12:03:59.656Z,14.15
2019-05-02T12:05:01.842Z,14.16
2019-05-02T12:06:01.823Z,14.23
2019-05-02T12:07:01.564Z,14.20
2019-05-02T12:08:02.568Z,14.30
2019-05-02T12:09:01.885Z,14.28
2019-05-02T12:10:02.628Z,14.33
2019-05-02T12:11:01.221Z,14.36
2019-05-02T12:11:59.822Z,14.38
2019-05-02T12:12:59.845Z,14.52
2019-05-02T12:14:01.539Z,14.44
2019-05-02T12:14:59.886Z,14.55
2019-05-02T12:15:59.906Z,14.56
2019-05-02T12:16:59.926Z,14.48
2019-05-02T12:17:59.948Z,14.59
2019-05-02T12:19:09.422Z,14.67
2019-05-02T12:20:01.906Z,14.67
2019-05-02T12:21:00.010Z,14.61
2019-05-02T12:22:02.443Z,14.62
2019-05-02T12:23:01.959Z,14.62
2019-05-02T12:24:01.675Z,14.61
2019-05-02T12:25:00.094Z,14.66
2019-05-02T12:26:00.112Z,14.68
2019-05-02T12:27:02.396Z,14.73
2019-05-02T12:28:02.184Z,14.78
2019-05-02T12:29:02.379Z,14.78
2019-05-02T12:30:00.198Z,14.93
2019-05-02T12:31:00.217Z,14.89
2019-05-02T12:32:00.239Z,14.93
2019-05-02T12:33:02.378Z,14.92
2019-05-02T12:34:00.287Z,14.97
2019-05-02T12:35:02.350Z,15.00
2019-05-02T12:36:02.088Z,15.04
2019-05-02T12:37:01.762Z,15.02
2019-05-02T12:38:00.367Z,14.97
2019-05-02T12:39:02.281Z,15.02
2019-05-02T12:40:02.555Z,15.02
2019-05-02T12:41:02.558Z,15.11
2019-05-02T12:42:02.672Z,15.08
2019-05-02T12:43:02.281Z,15.11
2019-05-02T12:44:02.286Z,15.17
2019-05-02T12:45:02.709Z,15.07
2019-05-02T12:46:02.173Z,15.04
2019-05-02T12:47:02.491Z,15.08
2019-05-02T12:48:02.372Z,15.08
2019-05-02T12:49:02.612Z,15.04
2019-05-02T12:50:02.964Z,15.05
2019-05-02T12:51:01.961Z,15.05
2019-05-02T12:52:01.746Z,15.04
2019-05-02T12:53:02.803Z,15.02
2019-05-02T12:54:02.265Z,15.05
2019-05-02T12:55:02.264Z,15.02
2019-05-02T12:56:02.202Z,15.08
2019-05-02T12:57:02.027Z,15.11
2019-05-02T12:58:02.969Z,15.11
2019-05-02T12:59:02.395Z,15.07
2019-05-02T13:00:01.852Z,15.17
2019-05-02T13:01:02.683Z,15.12
2019-05-02T13:02:02.456Z,15.19
2019-05-02T13:03:02.018Z,15.23
2019-05-02T13:04:02.640Z,15.25
2019-05-02T13:05:02.476Z,15.33
2019-05-02T13:06:02.857Z,15.25